sensor_id;sensor_type;location;lat;lon;timestamp;temperature;humidity
37274;DHT22;23161;51.250;5.554;2023-02-19T00:01:28;10.50;99.90
37274;DHT22;23161;51.250;5.554;2023-02-19T00:03:58;10.50;99.90
37274;DHT22;23161;51.250;5.554;2023-02-19T00:06:25;10.50;99.90
37274;DHT22;23161;51.250;5.554;2023-02-19T00:08:51;10.50;99.90
37274;DHT22;23161;51.250;5.554;2023-02-19T00:11:20;10.50;99.90
37274;DHT22;23161;51.250;5.554;2023-02-19T00:13:48;10.50;99.90
37274;DHT22;23161;51.250;5.554;2023-02-19T00:16:17;10.60;99.90
37274;DHT22;23161;51.250;5.554;2023-02-19T00:18:43;10.60;99.90
37274;DHT22;23161;51.250;5.554;2023-02-19T00:21:09;10.60;99.90
37274;DHT22;23161;51.250;5.554;2023-02-19T00:23:36;10.60;99.90
37274;DHT22;23161;51.250;5.554;2023-02-19T00:26:06;10.60;99.90
37274;DHT22;23161;51.250;5.554;2023-02-19T00:28:33;10.60;99.90
37274;DHT22;23161;51.250;5.554;2023-02-19T00:31:09;10.60;99.90
37274;DHT22;23161;51.250;5.554;2023-02-19T00:33:37;10.60;99.90
37274;DHT22;23161;51.250;5.554;2023-02-19T00:36:04;10.60;99.90
37274;DHT22;23161;51.250;5.554;2023-02-19T00:38:31;10.60;99.90
37274;DHT22;23161;51.250;5.554;2023-02-19T00:41:00;10.60;99.90
37274;DHT22;23161;51.250;5.554;2023-02-19T00:43:26;10.70;99.90
37274;DHT22;23161;51.250;5.554;2023-02-19T00:45:52;10.60;99.90
37274;DHT22;23161;51.250;5.554;2023-02-19T00:48:18;10.70;99.90
37274;DHT22;23161;51.250;5.554;2023-02-19T00:50:43;10.70;99.90
37274;DHT22;23161;51.250;5.554;2023-02-19T00:53:10;10.60;99.90
37274;DHT22;23161;51.250;5.554;2023-02-19T00:55:35;10.60;99.90
37274;DHT22;23161;51.250;5.554;2023-02-19T00:58:01;10.60;99.90
37274;DHT22;23161;51.250;5.554;2023-02-19T01:00:27;10.60;99.90
37274;DHT22;23161;51.250;5.554;2023-02-19T01:02:53;10.60;99.90
37274;DHT22;23161;51.250;5.554;2023-02-19T01:05:21;10.60;99.90
37274;DHT22;23161;51.250;5.554;2023-02-19T01:07:47;10.60;99.90
37274;DHT22;23161;51.250;5.554;2023-02-19T01:10:13;10.60;99.90
37274;DHT22;23161;51.250;5.554;2023-02-19T01:12:39;10.60;99.90
37274;DHT22;23161;51.250;5.554;2023-02-19T01:15:05;10.60;99.90
37274;DHT22;23161;51.250;5.554;2023-02-19T01:17:31;10.60;99.90
37274;DHT22;23161;51.250;5.554;2023-02-19T01:19:56;10.60;99.90
37274;DHT22;23161;51.250;5.554;2023-02-19T01:22:22;10.70;99.90
37274;DHT22;23161;51.250;5.554;2023-02-19T01:24:48;10.60;99.90
37274;DHT22;23161;51.250;5.554;2023-02-19T01:27:14;10.60;99.90
37274;DHT22;23161;51.250;5.554;2023-02-19T01:29:41;10.60;99.90
37274;DHT22;23161;51.250;5.554;2023-02-19T01:32:07;10.70;99.90
37274;DHT22;23161;51.250;5.554;2023-02-19T01:34:33;10.70;99.90
37274;DHT22;23161;51.250;5.554;2023-02-19T01:36:59;10.70;99.90
37274;DHT22;23161;51.250;5.554;2023-02-19T01:39:26;10.70;99.90
37274;DHT22;23161;51.250;5.554;2023-02-19T01:41:52;10.60;99.90
37274;DHT22;23161;51.250;5.554;2023-02-19T01:46:46;10.60;99.90
37274;DHT22;23161;51.250;5.554;2023-02-19T01:49:22;10.60;99.90
37274;DHT22;23161;51.250;5.554;2023-02-19T01:52:03;10.60;99.90
37274;DHT22;23161;51.250;5.554;2023-02-19T01:54:34;10.60;99.90
37274;DHT22;23161;51.250;5.554;2023-02-19T01:57:03;10.60;99.90
37274;DHT22;23161;51.250;5.554;2023-02-19T01:59:32;10.60;99.90
37274;DHT22;23161;51.250;5.554;2023-02-19T02:01:59;10.60;99.90
37274;DHT22;23161;51.250;5.554;2023-02-19T02:04:25;10.60;99.90
37274;DHT22;23161;51.250;5.554;2023-02-19T02:06:54;10.60;99.90
37274;DHT22;23161;51.250;5.554;2023-02-19T02:09:24;10.60;99.90
37274;DHT22;23161;51.250;5.554;2023-02-19T02:12:09;10.40;99.90
37274;DHT22;23161;51.250;5.554;2023-02-19T02:14:39;10.60;99.90
37274;DHT22;23161;51.250;5.554;2023-02-19T02:17:25;10.50;99.90
37274;DHT22;23161;51.250;5.554;2023-02-19T02:23:02;10.40;99.90
37274;DHT22;23161;51.250;5.554;2023-02-19T02:28:40;10.50;99.90
37274;DHT22;23161;51.250;5.554;2023-02-19T02:31:12;10.50;99.90
37274;DHT22;23161;51.250;5.554;2023-02-19T02:34:00;10.60;99.90
37274;DHT22;23161;51.250;5.554;2023-02-19T02:36:42;10.60;99.90
37274;DHT22;23161;51.250;5.554;2023-02-19T02:39:14;10.50;99.90
37274;DHT22;23161;51.250;5.554;2023-02-19T02:41:44;10.50;99.90
37274;DHT22;23161;51.250;5.554;2023-02-19T02:44:16;10.50;99.90
37274;DHT22;23161;51.250;5.554;2023-02-19T02:46:48;10.50;99.90
37274;DHT22;23161;51.250;5.554;2023-02-19T02:49:20;10.40;99.90
37274;DHT22;23161;51.250;5.554;2023-02-19T02:51:49;10.50;99.90
37274;DHT22;23161;51.250;5.554;2023-02-19T02:54:29;10.40;99.90
37274;DHT22;23161;51.250;5.554;2023-02-19T02:57:21;10.50;99.90
37274;DHT22;23161;51.250;5.554;2023-02-19T02:59:51;10.50;99.90
37274;DHT22;23161;51.250;5.554;2023-02-19T03:02:25;10.50;99.90
37274;DHT22;23161;51.250;5.554;2023-02-19T03:05:12;10.50;99.90
37274;DHT22;23161;51.250;5.554;2023-02-19T03:08:09;10.40;99.90
37274;DHT22;23161;51.250;5.554;2023-02-19T03:10:42;10.40;99.90
37274;DHT22;23161;51.250;5.554;2023-02-19T03:13:33;10.40;99.90
37274;DHT22;23161;51.250;5.554;2023-02-19T03:16:27;10.40;99.90
37274;DHT22;23161;51.250;5.554;2023-02-19T03:19:18;10.30;99.90
37274;DHT22;23161;51.250;5.554;2023-02-19T03:27:57;10.20;99.90
37274;DHT22;23161;51.250;5.554;2023-02-19T03:30:28;10.10;99.90
37274;DHT22;23161;51.250;5.554;2023-02-19T03:33:15;10.10;99.90
37274;DHT22;23161;51.250;5.554;2023-02-19T03:35:48;10.10;99.90
37274;DHT22;23161;51.250;5.554;2023-02-19T03:38:43;10.00;99.90
37274;DHT22;23161;51.250;5.554;2023-02-19T03:41:30;10.00;99.90
37274;DHT22;23161;51.250;5.554;2023-02-19T03:47:02;10.00;99.90
37274;DHT22;23161;51.250;5.554;2023-02-19T03:49:47;9.90;99.90
37274;DHT22;23161;51.250;5.554;2023-02-19T03:55:10;9.90;99.90
37274;DHT22;23161;51.250;5.554;2023-02-19T03:57:50;9.90;99.90
37274;DHT22;23161;51.250;5.554;2023-02-19T04:00:18;9.90;99.90
37274;DHT22;23161;51.250;5.554;2023-02-19T04:02:52;9.90;99.90
37274;DHT22;23161;51.250;5.554;2023-02-19T04:05:23;9.90;99.90
37274;DHT22;23161;51.250;5.554;2023-02-19T04:07:53;9.90;99.90
37274;DHT22;23161;51.250;5.554;2023-02-19T04:10:25;9.90;99.90
37274;DHT22;23161;51.250;5.554;2023-02-19T04:13:01;9.90;99.90
37274;DHT22;23161;51.250;5.554;2023-02-19T04:15:30;10.00;99.90
37274;DHT22;23161;51.250;5.554;2023-02-19T04:18:02;9.90;99.90
37274;DHT22;23161;51.250;5.554;2023-02-19T04:20:33;9.90;99.90
37274;DHT22;23161;51.250;5.554;2023-02-19T04:23:01;9.90;99.90
37274;DHT22;23161;51.250;5.554;2023-02-19T04:25:28;9.90;99.90
37274;DHT22;23161;51.250;5.554;2023-02-19T04:27:55;9.90;99.90
37274;DHT22;23161;51.250;5.554;2023-02-19T04:30:21;10.00;99.90
37274;DHT22;23161;51.250;5.554;2023-02-19T04:32:47;9.90;99.90
37274;DHT22;23161;51.250;5.554;2023-02-19T04:35:13;10.20;99.90
37274;DHT22;23161;51.250;5.554;2023-02-19T04:37:38;9.90;99.90
37274;DHT22;23161;51.250;5.554;2023-02-19T04:40:04;10.00;99.90
37274;DHT22;23161;51.250;5.554;2023-02-19T04:42:30;9.90;99.90
37274;DHT22;23161;51.250;5.554;2023-02-19T04:44:56;9.90;99.90
37274;DHT22;23161;51.250;5.554;2023-02-19T04:47:24;9.90;99.90
37274;DHT22;23161;51.250;5.554;2023-02-19T04:49:50;9.90;99.90
37274;DHT22;23161;51.250;5.554;2023-02-19T04:52:15;9.90;99.90
37274;DHT22;23161;51.250;5.554;2023-02-19T04:54:41;9.90;99.90
37274;DHT22;23161;51.250;5.554;2023-02-19T04:57:07;9.90;99.90
37274;DHT22;23161;51.250;5.554;2023-02-19T04:59:33;9.90;99.90
37274;DHT22;23161;51.250;5.554;2023-02-19T05:01:59;9.90;99.90
37274;DHT22;23161;51.250;5.554;2023-02-19T05:04:25;9.90;99.90
37274;DHT22;23161;51.250;5.554;2023-02-19T05:06:51;9.90;99.90
37274;DHT22;23161;51.250;5.554;2023-02-19T05:09:17;9.90;99.90
37274;DHT22;23161;51.250;5.554;2023-02-19T05:11:42;10.00;99.90
37274;DHT22;23161;51.250;5.554;2023-02-19T05:14:08;9.90;99.90
37274;DHT22;23161;51.250;5.554;2023-02-19T05:16:34;9.90;99.90
37274;DHT22;23161;51.250;5.554;2023-02-19T05:19:00;9.90;99.90
37274;DHT22;23161;51.250;5.554;2023-02-19T05:21:26;9.90;99.90
37274;DHT22;23161;51.250;5.554;2023-02-19T05:23:52;9.90;99.90
37274;DHT22;23161;51.250;5.554;2023-02-19T05:26:20;9.90;99.90
37274;DHT22;23161;51.250;5.554;2023-02-19T05:28:48;9.80;99.90
37274;DHT22;23161;51.250;5.554;2023-02-19T05:31:15;9.80;99.90
37274;DHT22;23161;51.250;5.554;2023-02-19T05:33:41;9.80;99.90
37274;DHT22;23161;51.250;5.554;2023-02-19T05:36:13;9.70;99.90
37274;DHT22;23161;51.250;5.554;2023-02-19T05:38:39;9.70;99.90
37274;DHT22;23161;51.250;5.554;2023-02-19T05:41:16;9.70;99.90
37274;DHT22;23161;51.250;5.554;2023-02-19T05:43:44;9.60;99.90
37274;DHT22;23161;51.250;5.554;2023-02-19T05:46:12;9.60;99.90
37274;DHT22;23161;51.250;5.554;2023-02-19T05:48:38;9.50;99.90
37274;DHT22;23161;51.250;5.554;2023-02-19T05:51:09;9.60;99.90
37274;DHT22;23161;51.250;5.554;2023-02-19T05:53:36;9.60;99.90
37274;DHT22;23161;51.250;5.554;2023-02-19T05:56:02;9.60;99.90
37274;DHT22;23161;51.250;5.554;2023-02-19T05:58:28;9.60;99.90
37274;DHT22;23161;51.250;5.554;2023-02-19T06:00:54;9.60;99.90
37274;DHT22;23161;51.250;5.554;2023-02-19T06:03:21;9.50;99.90
37274;DHT22;23161;51.250;5.554;2023-02-19T06:05:48;9.50;99.90
37274;DHT22;23161;51.250;5.554;2023-02-19T06:08:14;9.50;99.90
37274;DHT22;23161;51.250;5.554;2023-02-19T06:10:40;9.50;99.90
37274;DHT22;23161;51.250;5.554;2023-02-19T06:13:09;9.50;99.90
37274;DHT22;23161;51.250;5.554;2023-02-19T06:15:36;9.40;99.90
37274;DHT22;23161;51.250;5.554;2023-02-19T06:18:02;9.40;99.90
37274;DHT22;23161;51.250;5.554;2023-02-19T06:20:28;9.40;99.90
37274;DHT22;23161;51.250;5.554;2023-02-19T06:22:54;9.30;99.90
37274;DHT22;23161;51.250;5.554;2023-02-19T06:25:20;9.30;99.90
37274;DHT22;23161;51.250;5.554;2023-02-19T06:27:46;9.20;99.90
37274;DHT22;23161;51.250;5.554;2023-02-19T06:30:12;9.30;99.90
37274;DHT22;23161;51.250;5.554;2023-02-19T06:32:38;9.30;99.90
37274;DHT22;23161;51.250;5.554;2023-02-19T06:35:04;9.30;99.90
37274;DHT22;23161;51.250;5.554;2023-02-19T06:37:30;9.30;99.90
37274;DHT22;23161;51.250;5.554;2023-02-19T06:39:55;9.30;99.90
37274;DHT22;23161;51.250;5.554;2023-02-19T06:42:21;9.30;99.90
37274;DHT22;23161;51.250;5.554;2023-02-19T06:44:47;9.40;99.90
37274;DHT22;23161;51.250;5.554;2023-02-19T06:47:13;9.40;99.90
37274;DHT22;23161;51.250;5.554;2023-02-19T06:49:39;9.40;99.90
37274;DHT22;23161;51.250;5.554;2023-02-19T06:52:05;9.40;99.90
37274;DHT22;23161;51.250;5.554;2023-02-19T06:54:31;9.40;99.90
37274;DHT22;23161;51.250;5.554;2023-02-19T06:56:58;9.40;99.90
37274;DHT22;23161;51.250;5.554;2023-02-19T06:59:24;9.40;99.90
37274;DHT22;23161;51.250;5.554;2023-02-19T07:01:50;9.40;99.90
37274;DHT22;23161;51.250;5.554;2023-02-19T07:04:16;9.40;99.90
37274;DHT22;23161;51.250;5.554;2023-02-19T07:06:42;9.40;99.90
37274;DHT22;23161;51.250;5.554;2023-02-19T07:09:09;9.40;99.90
37274;DHT22;23161;51.250;5.554;2023-02-19T07:11:37;9.40;99.90
37274;DHT22;23161;51.250;5.554;2023-02-19T07:14:07;9.50;99.90
37274;DHT22;23161;51.250;5.554;2023-02-19T07:16:33;9.50;99.90
37274;DHT22;23161;51.250;5.554;2023-02-19T07:19:00;9.50;99.90
37274;DHT22;23161;51.250;5.554;2023-02-19T07:21:27;9.60;99.90
37274;DHT22;23161;51.250;5.554;2023-02-19T07:23:53;9.60;99.90
37274;DHT22;23161;51.250;5.554;2023-02-19T07:26:19;9.70;99.90
37274;DHT22;23161;51.250;5.554;2023-02-19T07:28:47;9.70;99.90
37274;DHT22;23161;51.250;5.554;2023-02-19T07:31:14;9.70;99.90
37274;DHT22;23161;51.250;5.554;2023-02-19T07:33:42;9.70;99.90
37274;DHT22;23161;51.250;5.554;2023-02-19T07:36:09;9.70;99.90
37274;DHT22;23161;51.250;5.554;2023-02-19T07:38:35;9.70;99.90
37274;DHT22;23161;51.250;5.554;2023-02-19T07:41:02;9.70;99.90
37274;DHT22;23161;51.250;5.554;2023-02-19T07:43:30;9.60;99.90
37274;DHT22;23161;51.250;5.554;2023-02-19T07:45:57;9.60;99.90
37274;DHT22;23161;51.250;5.554;2023-02-19T07:48:23;9.60;99.90
37274;DHT22;23161;51.250;5.554;2023-02-19T07:50:56;9.70;99.90
37274;DHT22;23161;51.250;5.554;2023-02-19T07:53:23;9.60;99.90
37274;DHT22;23161;51.250;5.554;2023-02-19T07:55:49;9.70;99.90
37274;DHT22;23161;51.250;5.554;2023-02-19T07:58:16;9.70;99.90
37274;DHT22;23161;51.250;5.554;2023-02-19T08:00:42;9.80;99.90
37274;DHT22;23161;51.250;5.554;2023-02-19T08:03:08;9.80;99.90
37274;DHT22;23161;51.250;5.554;2023-02-19T08:05:37;9.90;99.90
37274;DHT22;23161;51.250;5.554;2023-02-19T08:08:12;9.90;99.90
37274;DHT22;23161;51.250;5.554;2023-02-19T08:10:40;10.00;99.90
37274;DHT22;23161;51.250;5.554;2023-02-19T08:13:27;10.10;99.90
37274;DHT22;23161;51.250;5.554;2023-02-19T08:18:24;10.20;99.90
37274;DHT22;23161;51.250;5.554;2023-02-19T08:20:51;10.20;99.90
37274;DHT22;23161;51.250;5.554;2023-02-19T08:23:17;10.20;99.90
37274;DHT22;23161;51.250;5.554;2023-02-19T08:25:45;10.20;99.90
37274;DHT22;23161;51.250;5.554;2023-02-19T08:28:11;10.10;99.90
37274;DHT22;23161;51.250;5.554;2023-02-19T08:30:39;10.10;99.90
37274;DHT22;23161;51.250;5.554;2023-02-19T08:33:08;10.00;99.90
37274;DHT22;23161;51.250;5.554;2023-02-19T08:35:34;10.10;99.90
37274;DHT22;23161;51.250;5.554;2023-02-19T08:38:04;10.10;99.90
37274;DHT22;23161;51.250;5.554;2023-02-19T08:40:39;10.30;99.90
37274;DHT22;23161;51.250;5.554;2023-02-19T08:43:13;10.30;99.90
37274;DHT22;23161;51.250;5.554;2023-02-19T08:45:43;10.30;99.90
37274;DHT22;23161;51.250;5.554;2023-02-19T08:48:10;10.30;99.90
37274;DHT22;23161;51.250;5.554;2023-02-19T08:50:37;10.40;99.90
37274;DHT22;23161;51.250;5.554;2023-02-19T08:53:04;10.40;99.90
37274;DHT22;23161;51.250;5.554;2023-02-19T08:55:31;10.40;99.90
37274;DHT22;23161;51.250;5.554;2023-02-19T08:57:57;10.30;99.90
37274;DHT22;23161;51.250;5.554;2023-02-19T09:00:23;10.40;99.90
37274;DHT22;23161;51.250;5.554;2023-02-19T09:02:49;10.40;99.90
37274;DHT22;23161;51.250;5.554;2023-02-19T09:05:15;10.50;99.90
37274;DHT22;23161;51.250;5.554;2023-02-19T09:07:41;10.50;99.90
37274;DHT22;23161;51.250;5.554;2023-02-19T09:10:09;10.50;99.90
37274;DHT22;23161;51.250;5.554;2023-02-19T09:12:35;10.60;99.90
37274;DHT22;23161;51.250;5.554;2023-02-19T09:15:04;10.60;99.90
37274;DHT22;23161;51.250;5.554;2023-02-19T09:17:30;10.70;99.90
37274;DHT22;23161;51.250;5.554;2023-02-19T09:19:55;10.90;99.90
37274;DHT22;23161;51.250;5.554;2023-02-19T09:22:21;11.40;99.90
37274;DHT22;23161;51.250;5.554;2023-02-19T09:24:47;11.40;99.90
37274;DHT22;23161;51.250;5.554;2023-02-19T09:27:15;11.30;99.90
37274;DHT22;23161;51.250;5.554;2023-02-19T09:29:41;11.50;99.90
37274;DHT22;23161;51.250;5.554;2023-02-19T09:32:07;11.60;99.90
37274;DHT22;23161;51.250;5.554;2023-02-19T09:34:33;11.80;99.90
37274;DHT22;23161;51.250;5.554;2023-02-19T09:36:59;13.10;99.90
37274;DHT22;23161;51.250;5.554;2023-02-19T09:39:24;13.00;99.90
37274;DHT22;23161;51.250;5.554;2023-02-19T09:41:51;12.80;99.90
37274;DHT22;23161;51.250;5.554;2023-02-19T09:44:24;12.70;99.90
37274;DHT22;23161;51.250;5.554;2023-02-19T09:46:52;12.90;99.90
37274;DHT22;23161;51.250;5.554;2023-02-19T09:49:33;12.90;99.90
37274;DHT22;23161;51.250;5.554;2023-02-19T09:52:24;12.60;99.90
37274;DHT22;23161;51.250;5.554;2023-02-19T09:54:54;12.80;99.90
37274;DHT22;23161;51.250;5.554;2023-02-19T09:57:25;12.80;99.90
37274;DHT22;23161;51.250;5.554;2023-02-19T10:00:04;13.40;99.90
37274;DHT22;23161;51.250;5.554;2023-02-19T10:02:30;14.60;99.90
37274;DHT22;23161;51.250;5.554;2023-02-19T10:04:57;15.00;99.90
37274;DHT22;23161;51.250;5.554;2023-02-19T10:07:27;15.20;99.90
37274;DHT22;23161;51.250;5.554;2023-02-19T10:10:17;14.60;99.90
37274;DHT22;23161;51.250;5.554;2023-02-19T10:12:48;14.60;99.90
37274;DHT22;23161;51.250;5.554;2023-02-19T10:15:27;14.10;99.90
37274;DHT22;23161;51.250;5.554;2023-02-19T10:17:54;13.70;99.90
37274;DHT22;23161;51.250;5.554;2023-02-19T10:20:21;13.40;99.90
37274;DHT22;23161;51.250;5.554;2023-02-19T10:23:04;13.40;99.90
37274;DHT22;23161;51.250;5.554;2023-02-19T10:25:31;13.20;99.90
37274;DHT22;23161;51.250;5.554;2023-02-19T10:27:58;13.40;99.90
37274;DHT22;23161;51.250;5.554;2023-02-19T10:30:28;13.10;99.90
37274;DHT22;23161;51.250;5.554;2023-02-19T10:32:59;13.10;99.90
37274;DHT22;23161;51.250;5.554;2023-02-19T10:35:25;13.20;99.90
37274;DHT22;23161;51.250;5.554;2023-02-19T10:37:52;13.10;99.90
37274;DHT22;23161;51.250;5.554;2023-02-19T10:40:23;13.00;99.90
37274;DHT22;23161;51.250;5.554;2023-02-19T10:42:56;12.90;99.90
37274;DHT22;23161;51.250;5.554;2023-02-19T10:45:44;12.30;99.90
37274;DHT22;23161;51.250;5.554;2023-02-19T10:48:36;12.40;99.90
37274;DHT22;23161;51.250;5.554;2023-02-19T10:51:08;12.00;99.90
37274;DHT22;23161;51.250;5.554;2023-02-19T10:56:08;11.50;99.90
37274;DHT22;23161;51.250;5.554;2023-02-19T10:58:34;11.30;99.90
37274;DHT22;23161;51.250;5.554;2023-02-19T11:03:39;11.10;99.90
37274;DHT22;23161;51.250;5.554;2023-02-19T11:06:07;11.10;99.90
37274;DHT22;23161;51.250;5.554;2023-02-19T11:08:57;11.10;99.90
37274;DHT22;23161;51.250;5.554;2023-02-19T11:11:35;11.10;99.90
37274;DHT22;23161;51.250;5.554;2023-02-19T11:14:16;11.10;99.90
37274;DHT22;23161;51.250;5.554;2023-02-19T11:16:46;11.10;99.90
37274;DHT22;23161;51.250;5.554;2023-02-19T11:19:40;11.00;99.90
37274;DHT22;23161;51.250;5.554;2023-02-19T11:25:04;11.30;99.90
37274;DHT22;23161;51.250;5.554;2023-02-19T11:27:31;11.40;99.90
37274;DHT22;23161;51.250;5.554;2023-02-19T11:32:45;11.90;99.90
37274;DHT22;23161;51.250;5.554;2023-02-19T11:35:19;12.00;99.90
37274;DHT22;23161;51.250;5.554;2023-02-19T11:40:20;12.20;99.90
37274;DHT22;23161;51.250;5.554;2023-02-19T11:43:00;12.20;99.90
37274;DHT22;23161;51.250;5.554;2023-02-19T11:51:09;12.30;99.90
37274;DHT22;23161;51.250;5.554;2023-02-19T11:53:46;12.00;99.90
37274;DHT22;23161;51.250;5.554;2023-02-19T11:56:22;11.90;99.90
37274;DHT22;23161;51.250;5.554;2023-02-19T12:13:16;12.10;99.90
37274;DHT22;23161;51.250;5.554;2023-02-19T12:15:21;12.00;99.90
37274;DHT22;23161;51.250;5.554;2023-02-19T12:20:42;11.80;99.90
37274;DHT22;23161;51.250;5.554;2023-02-19T12:34:08;11.40;99.90
37274;DHT22;23161;51.250;5.554;2023-02-19T12:42:27;11.50;99.90
37274;DHT22;23161;51.250;5.554;2023-02-19T12:45:01;11.40;99.90
37274;DHT22;23161;51.250;5.554;2023-02-19T12:47:37;11.40;99.90
37274;DHT22;23161;51.250;5.554;2023-02-19T12:52:40;11.60;99.90
37274;DHT22;23161;51.250;5.554;2023-02-19T12:55:38;11.50;99.90
37274;DHT22;23161;51.250;5.554;2023-02-19T12:58:10;12.80;99.90
37274;DHT22;23161;51.250;5.554;2023-02-19T13:00:42;11.50;99.90
37274;DHT22;23161;51.250;5.554;2023-02-19T13:03:43;11.50;99.90
37274;DHT22;23161;51.250;5.554;2023-02-19T13:14:58;11.80;99.90
37274;DHT22;23161;51.250;5.554;2023-02-19T13:17:37;11.80;99.90
37274;DHT22;23161;51.250;5.554;2023-02-19T13:29:09;12.00;99.90
37274;DHT22;23161;51.250;5.554;2023-02-19T13:37:20;12.30;99.90
37274;DHT22;23161;51.250;5.554;2023-02-19T13:39:48;12.40;99.90
37274;DHT22;23161;51.250;5.554;2023-02-19T13:42:30;12.70;99.90
37274;DHT22;23161;51.250;5.554;2023-02-19T13:44:58;12.70;99.90
37274;DHT22;23161;51.250;5.554;2023-02-19T13:50:26;12.60;99.90
37274;DHT22;23161;51.250;5.554;2023-02-19T13:52:54;12.50;99.90
37274;DHT22;23161;51.250;5.554;2023-02-19T14:01:02;12.00;99.90
37274;DHT22;23161;51.250;5.554;2023-02-19T14:06:15;11.60;99.90
37274;DHT22;23161;51.250;5.554;2023-02-19T14:12:00;11.50;99.90
37274;DHT22;23161;51.250;5.554;2023-02-19T14:14:26;11.40;99.90
37274;DHT22;23161;51.250;5.554;2023-02-19T14:17:00;11.20;99.90
37274;DHT22;23161;51.250;5.554;2023-02-19T14:30:28;11.20;99.90
37274;DHT22;23161;51.250;5.554;2023-02-19T14:32:54;11.10;99.90
37274;DHT22;23161;51.250;5.554;2023-02-19T14:35:35;11.10;99.90
37274;DHT22;23161;51.250;5.554;2023-02-19T14:38:03;11.20;99.90
37274;DHT22;23161;51.250;5.554;2023-02-19T14:40:38;11.20;99.90
37274;DHT22;23161;51.250;5.554;2023-02-19T14:43:10;11.10;99.90
37274;DHT22;23161;51.250;5.554;2023-02-19T14:45:51;11.00;99.90
37274;DHT22;23161;51.250;5.554;2023-02-19T14:48:40;11.10;99.90
37274;DHT22;23161;51.250;5.554;2023-02-19T14:53:57;11.00;99.90
37274;DHT22;23161;51.250;5.554;2023-02-19T14:56:28;10.90;99.90
37274;DHT22;23161;51.250;5.554;2023-02-19T15:01:37;10.90;99.90
37274;DHT22;23161;51.250;5.554;2023-02-19T15:04:04;11.00;99.90
37274;DHT22;23161;51.250;5.554;2023-02-19T15:06:33;11.00;99.90
37274;DHT22;23161;51.250;5.554;2023-02-19T15:09:04;10.90;99.90
37274;DHT22;23161;51.250;5.554;2023-02-19T15:11:32;10.90;99.90
37274;DHT22;23161;51.250;5.554;2023-02-19T15:14:04;11.00;99.90
37274;DHT22;23161;51.250;5.554;2023-02-19T15:16:33;11.00;99.90
37274;DHT22;23161;51.250;5.554;2023-02-19T15:19:07;11.10;99.90
37274;DHT22;23161;51.250;5.554;2023-02-19T15:21:37;11.00;99.90
37274;DHT22;23161;51.250;5.554;2023-02-19T15:24:05;11.10;99.90
37274;DHT22;23161;51.250;5.554;2023-02-19T15:26:36;10.90;99.90
37274;DHT22;23161;51.250;5.554;2023-02-19T15:29:08;10.70;99.90
37274;DHT22;23161;51.250;5.554;2023-02-19T15:31:35;10.60;99.90
37274;DHT22;23161;51.250;5.554;2023-02-19T15:34:01;10.50;99.90
37274;DHT22;23161;51.250;5.554;2023-02-19T15:36:31;10.60;99.90
37274;DHT22;23161;51.250;5.554;2023-02-19T15:39:00;10.40;99.90
37274;DHT22;23161;51.250;5.554;2023-02-19T15:41:31;10.30;99.90
37274;DHT22;23161;51.250;5.554;2023-02-19T15:44:24;10.20;99.90
37274;DHT22;23161;51.250;5.554;2023-02-19T15:46:53;10.20;99.90
37274;DHT22;23161;51.250;5.554;2023-02-19T15:49:27;10.10;99.90
37274;DHT22;23161;51.250;5.554;2023-02-19T15:52:04;10.00;99.90
37274;DHT22;23161;51.250;5.554;2023-02-19T15:54:52;10.10;99.90
37274;DHT22;23161;51.250;5.554;2023-02-19T15:57:23;9.90;99.90
37274;DHT22;23161;51.250;5.554;2023-02-19T15:59:59;9.80;99.90
37274;DHT22;23161;51.250;5.554;2023-02-19T16:02:26;9.80;99.90
37274;DHT22;23161;51.250;5.554;2023-02-19T16:04:52;9.80;99.90
37274;DHT22;23161;51.250;5.554;2023-02-19T16:07:27;9.70;99.90
37274;DHT22;23161;51.250;5.554;2023-02-19T16:10:22;9.60;99.90
37274;DHT22;23161;51.250;5.554;2023-02-19T16:12:56;9.60;99.90
37274;DHT22;23161;51.250;5.554;2023-02-19T16:15:22;9.50;99.90
37274;DHT22;23161;51.250;5.554;2023-02-19T16:17:49;9.50;99.90
37274;DHT22;23161;51.250;5.554;2023-02-19T16:20:25;9.50;99.90
37274;DHT22;23161;51.250;5.554;2023-02-19T16:22:59;9.50;99.90
37274;DHT22;23161;51.250;5.554;2023-02-19T16:25:39;9.30;99.90
37274;DHT22;23161;51.250;5.554;2023-02-19T16:31:03;9.30;99.90
37274;DHT22;23161;51.250;5.554;2023-02-19T16:38:59;9.20;99.90
37274;DHT22;23161;51.250;5.554;2023-02-19T16:41:25;9.20;99.90
37274;DHT22;23161;51.250;5.554;2023-02-19T16:43:50;9.20;99.90
37274;DHT22;23161;51.250;5.554;2023-02-19T16:46:16;9.10;99.90
37274;DHT22;23161;51.250;5.554;2023-02-19T16:48:42;9.10;99.90
37274;DHT22;23161;51.250;5.554;2023-02-19T16:51:16;9.00;99.90
37274;DHT22;23161;51.250;5.554;2023-02-19T16:53:44;9.00;99.90
37274;DHT22;23161;51.250;5.554;2023-02-19T16:56:15;9.00;99.90
37274;DHT22;23161;51.250;5.554;2023-02-19T16:58:43;9.00;99.90
37274;DHT22;23161;51.250;5.554;2023-02-19T17:01:09;8.90;99.90
37274;DHT22;23161;51.250;5.554;2023-02-19T17:03:36;8.90;99.90
37274;DHT22;23161;51.250;5.554;2023-02-19T17:06:03;8.80;99.90
37274;DHT22;23161;51.250;5.554;2023-02-19T17:08:43;8.80;99.90
37274;DHT22;23161;51.250;5.554;2023-02-19T17:11:11;8.70;99.90
37274;DHT22;23161;51.250;5.554;2023-02-19T17:13:37;8.60;99.90
37274;DHT22;23161;51.250;5.554;2023-02-19T17:16:03;8.60;99.90
37274;DHT22;23161;51.250;5.554;2023-02-19T17:18:29;8.50;99.90
37274;DHT22;23161;51.250;5.554;2023-02-19T17:21:03;8.50;99.90
37274;DHT22;23161;51.250;5.554;2023-02-19T17:23:30;8.50;99.90
37274;DHT22;23161;51.250;5.554;2023-02-19T17:25:55;8.40;99.90
37274;DHT22;23161;51.250;5.554;2023-02-19T17:28:21;8.30;99.90
37274;DHT22;23161;51.250;5.554;2023-02-19T17:30:47;8.20;99.90
37274;DHT22;23161;51.250;5.554;2023-02-19T17:33:13;8.10;99.90
37274;DHT22;23161;51.250;5.554;2023-02-19T17:35:38;8.00;99.90
37274;DHT22;23161;51.250;5.554;2023-02-19T17:38:08;7.80;99.90
37274;DHT22;23161;51.250;5.554;2023-02-19T17:40:35;7.70;99.90
37274;DHT22;23161;51.250;5.554;2023-02-19T17:43:01;7.60;99.90
37274;DHT22;23161;51.250;5.554;2023-02-19T17:45:27;7.40;99.90
37274;DHT22;23161;51.250;5.554;2023-02-19T17:47:53;7.40;99.90
37274;DHT22;23161;51.250;5.554;2023-02-19T17:50:22;7.20;99.90
37274;DHT22;23161;51.250;5.554;2023-02-19T17:52:48;7.20;99.90
37274;DHT22;23161;51.250;5.554;2023-02-19T17:55:15;7.10;99.90
37274;DHT22;23161;51.250;5.554;2023-02-19T17:57:50;7.00;99.90
37274;DHT22;23161;51.250;5.554;2023-02-19T18:00:21;6.90;99.90
37274;DHT22;23161;51.250;5.554;2023-02-19T18:02:47;6.80;99.90
37274;DHT22;23161;51.250;5.554;2023-02-19T18:05:13;6.80;99.90
37274;DHT22;23161;51.250;5.554;2023-02-19T18:07:39;6.70;99.90
37274;DHT22;23161;51.250;5.554;2023-02-19T18:10:06;6.70;99.90
37274;DHT22;23161;51.250;5.554;2023-02-19T18:12:32;6.60;99.90
37274;DHT22;23161;51.250;5.554;2023-02-19T18:14:57;6.60;99.90
37274;DHT22;23161;51.250;5.554;2023-02-19T18:17:24;6.50;99.90